LRSM - SATU MARE

Compiled: 17:26:45 on 20/10/2018

Latest METAR/SPECI Reports

METAR LRSM 201700Z AUTO 30005KT 6000 SCT050/// BKN080/// OVC130/// 14/11 Q1021=

Previous reports

METAR LRSM 201630Z AUTO 31005KT 6000 FEW090/// OVC130/// 14/12 Q1021=
METAR LRSM 201600Z 30005KT 6000 NSC 14/12 Q1021=
METAR LRSM 201530Z 29004KT 6000 NSC 15/12 Q1020=
METAR LRSM 201500Z 28003KT 6000 NSC 16/12 Q1020=

Latest TAF report

TAF AMD LRSM 201704Z 2017/2024 CNL=

Valid WARNINGS

No valid warnings for LRSM